Terminal Aerodrome Forecast
Issued by NWS Charleston, WV

Home | Current Version | Previous Version | Text Only | Print | Product List | Glossary On
Versions: 1 2 3 4 5 6 7 8 9 10 11 12 13 14 15 16 17 18 19 20 21 22 23 24 25 26
448
FTUS41 KRLX 261507 AAA
TAFEKN
TAF AMD
KEKN 261507Z 2615/2712 VRB06G18KT P6SM SCT021 BKN035 OVC045
     FM261800 28011G19KT P6SM BKN035
     FM262300 29008KT P6SM SCT120
     FM270400 21004KT P6SM SCT080
     FM270700 VRB03KT P6SM BKN050=

USA.gov is the U.S. government's official web portal to all federal, state and local government web resources and services.